Time;durP1;ratioP1;P1;durP2;ratioP2;P2;SDS_P1;SDS_P2;PMS_P1;PMS_P2;Temp;Humidity;BMP_temperature;BMP_pressure;BME280_temperature;BME280_humidity;BME280_pressure;Samples;Min_cycle;Max_cycle;Signal;HPM_P1;HPM_P2
2023/10/28 00:00:32;;;;;;;14.15;8.48;;;;;;;0.75;71.77;98235.91;5113834;28;20036;-59
2023/10/28 00:02:58;;;;;;;17.17;8.55;;;;;;;0.79;71.80;98249.75;5115079;28;20123;-59
2023/10/28 00:05:24;;;;;;;13.93;8.10;;;;;;;0.77;71.43;98238.47;5097520;28;20491;-59
2023/10/28 00:07:50;;;;;;;12.80;8.25;;;;;;;0.76;71.88;98239.41;5115254;28;20365;-58
2023/10/28 00:10:18;;;;;;;13.63;7.60;;;;;;;0.83;71.74;98238.88;5114671;28;20024;-58
2023/10/28 00:12:44;;;;;;;15.50;8.52;;;;;;;0.80;71.14;98211.91;5115095;28;20104;-60
2023/10/28 00:15:10;;;;;;;15.45;8.57;;;;;;;0.75;71.45;98222.75;5115373;28;20110;-61
2023/10/28 00:17:37;;;;;;;13.68;7.93;;;;;;;0.81;71.69;98218.88;5114979;28;20149;-58
2023/10/28 00:20:05;;;;;;;15.93;8.18;;;;;;;0.82;71.64;98210.00;5114775;28;20051;-57
2023/10/28 00:22:31;;;;;;;13.10;8.15;;;;;;;0.42;71.37;98166.91;5114957;28;20039;-61
2023/10/28 00:25:00;;;;;;;13.18;8.63;;;;;;;0.83;71.51;98211.69;5115060;28;20052;-57
2023/10/28 00:27:26;;;;;;;12.77;8.20;;;;;;;0.64;71.86;98181.31;5114435;28;20442;-59
2023/10/28 00:29:54;;;;;;;16.00;9.50;;;;;;;0.78;72.21;98213.81;5114678;28;20041;-62
2023/10/28 00:32:22;;;;;;;19.25;9.73;;;;;;;0.68;71.35;98171.41;5114594;28;20023;-60
2023/10/28 00:34:49;;;;;;;15.07;9.40;;;;;;;0.71;70.91;98169.41;5114015;28;20076;-60
2023/10/28 00:37:14;;;;;;;13.65;9.10;;;;;;;0.76;71.43;98200.72;5114263;27;20046;-58
2023/10/28 00:39:40;;;;;;;19.02;9.50;;;;;;;0.81;71.07;98213.59;5114604;28;20027;-60
2023/10/28 00:42:06;;;;;;;14.98;10.07;;;;;;;0.56;71.51;98184.44;5113706;28;20024;-59
2023/10/28 00:44:32;;;;;;;20.90;10.68;;;;;;;0.78;71.67;98225.16;5113894;28;20042;-58
2023/10/28 00:46:58;;;;;;;20.67;11.65;;;;;;;0.70;71.88;98211.69;5113823;28;20028;-53
2023/10/28 00:49:24;;;;;;;19.20;11.15;;;;;;;0.61;72.13;98196.50;5114300;28;20024;-57
2023/10/28 00:51:50;;;;;;;18.55;11.60;;;;;;;0.47;72.27;98165.75;5114619;28;20038;-54
2023/10/28 00:54:15;;;;;;;23.02;13.52;;;;;;;0.82;72.17;98204.75;5114515;28;20354;-57
2023/10/28 00:56:41;;;;;;;19.83;12.18;;;;;;;0.90;71.57;98202.44;5114369;28;20096;-60
2023/10/28 00:59:07;;;;;;;20.48;12.25;;;;;;;0.91;71.59;98188.31;5114068;28;20027;-56
2023/10/28 01:01:32;;;;;;;20.67;12.25;;;;;;;0.93;71.57;98191.69;5113277;28;20023;-58
2023/10/28 01:03:58;;;;;;;21.20;13.00;;;;;;;0.93;71.68;98186.41;5114401;28;20163;-60
2023/10/28 01:06:24;;;;;;;21.13;12.63;;;;;;;0.63;71.28;98139.28;5113997;28;20343;-59
2023/10/28 01:08:49;;;;;;;24.23;13.43;;;;;;;0.88;71.53;98193.78;5113820;28;20442;-61
2023/10/28 01:11:15;;;;;;;22.92;12.90;;;;;;;0.75;71.84;98166.59;5114070;28;20043;-60
2023/10/28 01:13:40;;;;;;;22.10;12.77;;;;;;;0.92;71.78;98190.00;5113428;28;20023;-58
2023/10/28 01:16:08;;;;;;;22.05;13.00;;;;;;;0.89;72.20;98195.47;5113796;28;20023;-61
2023/10/28 01:18:34;;;;;;;22.20;13.00;;;;;;;1.04;71.20;98204.13;5113682;28;20102;-54
2023/10/28 01:21:12;;;;;;;21.83;13.40;;;;;;;0.97;72.12;98202.88;5113671;28;20062;-57
2023/10/28 01:23:38;;;;;;;22.08;13.65;;;;;;;0.82;71.44;98162.59;5112240;28;20081;-59
2023/10/28 01:26:04;;;;;;;23.33;13.00;;;;;;;0.95;71.69;98195.06;5113841;28;20090;-58
2023/10/28 01:28:29;;;;;;;25.20;13.88;;;;;;;0.94;72.03;98184.63;5095235;28;20031;-57
2023/10/28 01:30:56;;;;;;;26.67;13.43;;;;;;;0.86;71.45;98153.53;5113685;27;20081;-60
2023/10/28 01:33:22;;;;;;;19.25;11.38;;;;;;;1.03;71.49;98189.28;5113391;28;20115;-58
2023/10/28 01:35:47;;;;;;;23.25;12.95;;;;;;;1.00;71.60;98185.06;5113503;28;20115;-58
2023/10/28 01:38:13;;;;;;;22.52;12.35;;;;;;;1.02;71.87;98186.75;5113892;28;20428;-59
2023/10/28 01:40:39;;;;;;;22.45;12.68;;;;;;;0.98;71.27;98184.34;5112411;28;20122;-59
2023/10/28 01:43:05;;;;;;;23.60;12.73;;;;;;;0.98;71.38;98181.69;5113578;28;20386;-59
2023/10/28 01:45:31;;;;;;;24.60;13.57;;;;;;;1.03;71.75;98186.63;5113646;28;20036;-59
2023/10/28 01:47:56;;;;;;;24.55;13.10;;;;;;;1.04;71.60;98187.50;5112478;28;20028;-60
2023/10/28 01:50:22;;;;;;;21.60;13.32;;;;;;;1.11;71.25;98183.47;5113330;28;20038;-57
2023/10/28 01:52:48;;;;;;;19.88;12.75;;;;;;;1.02;71.10;98173.59;5112623;28;20031;-56
2023/10/28 01:55:14;;;;;;;21.42;12.32;;;;;;;1.05;71.07;98174.19;5112379;28;20040;-58
2023/10/28 01:57:40;;;;;;;25.50;13.20;;;;;;;0.71;72.22;98134.34;5113057;28;20035;-61
2023/10/28 02:00:12;;;;;;;22.17;13.20;;;;;;;0.73;71.72;98124.53;5113332;28;20471;-61
2023/10/28 02:02:38;;;;;;;22.17;13.02;;;;;;;1.02;71.10;98152.50;5113266;28;20046;-60
2023/10/28 02:05:05;;;;;;;28.45;14.30;;;;;;;0.97;71.48;98166.84;5113155;28;20034;-57
2023/10/28 02:07:33;;;;;;;27.40;13.80;;;;;;;0.65;71.52;98118.94;5113105;28;20038;-60
2023/10/28 02:09:59;;;;;;;28.08;14.23;;;;;;;0.83;71.94;98151.94;5112565;28;20028;-59
2023/10/28 02:12:25;;;;;;;25.48;13.43;;;;;;;0.91;71.14;98156.69;5113221;28;20587;-62
2023/10/28 02:14:51;;;;;;;23.13;13.15;;;;;;;0.85;72.39;98155.34;5112659;28;20036;-59
2023/10/28 02:17:18;;;;;;;28.95;14.38;;;;;;;1.07;71.31;98166.19;5113168;28;20039;-58
2023/10/28 02:19:44;;;;;;;27.20;14.05;;;;;;;1.04;71.39;98154.06;5113306;28;20035;-58
2023/10/28 02:22:10;;;;;;;26.70;13.45;;;;;;;0.97;71.21;98145.75;5112662;28;20513;-60
2023/10/28 02:24:37;;;;;;;25.75;13.88;;;;;;;0.97;71.40;98148.38;5112803;28;20529;-59
2023/10/28 02:27:02;;;;;;;28.27;14.70;;;;;;;0.92;71.57;98133.84;5112054;28;20135;-59
2023/10/28 02:29:29;;;;;;;27.05;14.18;;;;;;;0.91;71.14;98132.97;5112767;28;20114;-60
2023/10/28 02:31:54;;;;;;;26.70;14.80;;;;;;;0.78;71.98;98124.22;5112711;28;20032;-61
2023/10/28 02:34:20;;;;;;;28.15;14.85;;;;;;;0.80;72.38;98138.16;5112482;28;20031;-61
2023/10/28 02:36:46;;;;;;;28.52;14.88;;;;;;;0.87;71.49;98133.31;5112961;28;20023;-58
2023/10/28 02:39:12;;;;;;;28.40;14.00;;;;;;;0.82;71.94;98125.72;5113081;28;20024;-61
2023/10/28 02:41:38;;;;;;;25.17;14.48;;;;;;;0.65;72.17;98113.69;5112666;28;20027;-57
2023/10/28 02:44:04;;;;;;;27.73;14.88;;;;;;;0.83;72.62;98137.94;5112337;28;20042;-57
2023/10/28 02:46:30;;;;;;;31.65;15.13;;;;;;;0.85;71.66;98125.50;5111525;28;20024;-59
2023/10/28 02:48:56;;;;;;;30.92;15.30;;;;;;;0.86;71.79;98121.91;5112973;28;20135;-61
2023/10/28 02:51:22;;;;;;;26.60;14.65;;;;;;;0.89;71.60;98137.50;5111789;28;20081;-53
2023/10/28 02:53:48;;;;;;;30.92;15.10;;;;;;;0.84;71.94;98131.72;5112575;28;20039;-54
2023/10/28 02:56:15;;;;;;;29.40;14.52;;;;;;;0.78;72.11;98119.78;5111612;28;20115;-55
2023/10/28 02:58:40;;;;;;;24.58;13.77;;;;;;;0.76;71.86;98121.69;5112696;28;20085;-52
2023/10/28 03:01:08;;;;;;;17.63;8.25;;;;;;;0.69;71.48;98089.66;5111640;28;20024;-54
2023/10/28 03:03:34;;;;;;;24.65;12.98;;;;;;;0.87;71.54;98134.13;5112172;28;20028;-55
2023/10/28 03:05:59;;;;;;;23.73;12.02;;;;;;;0.79;72.09;98123.28;5112367;28;20339;-59
2023/10/28 03:08:25;;;;;;;21.20;11.55;;;;;;;0.72;72.75;98120.22;5112584;28;20116;-59
2023/10/28 03:10:50;;;;;;;24.20;11.82;;;;;;;0.76;72.43;98120.88;5114703;28;20024;-57
2023/10/28 03:13:16;;;;;;;25.88;12.40;;;;;;;0.78;72.59;98101.34;5114931;28;20152;-62
2023/10/28 03:15:45;;;;;;;24.23;11.75;;;;;;;0.85;72.13;98107.91;5115853;28;20096;-60
2023/10/28 03:18:11;;;;;;;20.48;11.88;;;;;;;0.89;72.42;98097.97;5115515;28;20766;-61
2023/10/28 03:20:36;;;;;;;23.45;11.88;;;;;;;0.77;72.55;98075.94;5115822;27;20107;-60
2023/10/28 03:23:02;;;;;;;25.23;12.10;;;;;;;0.82;72.62;98080.91;5115784;28;20027;-59
2023/10/28 03:25:28;;;;;;;24.27;12.23;;;;;;;0.87;72.75;98086.72;5115609;28;20044;-60
2023/10/28 03:27:54;;;;;;;23.63;11.02;;;;;;;0.95;72.67;98087.00;5115899;28;20090;-60
2023/10/28 03:30:19;;;;;;;19.77;11.13;;;;;;;1.05;71.81;98083.75;5115863;28;20039;-59
2023/10/28 03:32:47;;;;;;;22.85;11.35;;;;;;;1.03;72.21;98075.13;5115751;28;20116;-59
2023/10/28 03:35:12;;;;;;;25.35;11.30;;;;;;;1.07;71.67;98071.31;5114597;28;20528;-59
2023/10/28 03:37:38;;;;;;;22.02;11.43;;;;;;;0.98;71.78;98076.28;5114354;28;20074;-57
2023/10/28 03:40:04;;;;;;;20.85;11.32;;;;;;;0.71;72.11;98034.25;5115776;28;20023;-53
2023/10/28 03:42:30;;;;;;;19.75;11.38;;;;;;;0.91;72.44;98072.38;5115502;28;20322;-57
2023/10/28 03:44:56;;;;;;;19.02;10.60;;;;;;;0.96;71.88;98064.97;5114349;28;20020;-55
2023/10/28 03:47:22;;;;;;;20.15;11.02;;;;;;;0.93;71.78;98057.28;5115593;28;20088;-57
2023/10/28 03:49:48;;;;;;;17.73;9.52;;;;;;;1.17;71.07;98063.59;5115459;28;20035;-57
2023/10/28 03:52:13;;;;;;;20.85;11.10;;;;;;;0.95;71.55;98063.28;5115076;28;20031;-58
2023/10/28 03:54:39;;;;;;;23.65;11.85;;;;;;;0.84;72.48;98066.72;5115196;28;20065;-60
2023/10/28 03:57:05;;;;;;;19.85;11.05;;;;;;;0.99;71.49;98067.44;5115537;28;20529;-59
2023/10/28 03:59:30;;;;;;;21.88;12.27;;;;;;;0.92;72.53;98066.16;5114907;28;20462;-58
2023/10/28 04:01:56;;;;;;;20.95;11.98;;;;;;;0.81;72.16;98044.97;5115205;28;20063;-57
2023/10/28 04:04:21;;;;;;;19.83;11.13;;;;;;;0.92;71.06;98063.50;5115529;28;20024;-61
2023/10/28 04:06:47;;;;;;;21.80;11.65;;;;;;;0.97;71.54;98055.28;5115184;28;20171;-58
2023/10/28 04:09:15;;;;;;;21.40;12.15;;;;;;;0.88;71.23;98055.94;5114785;28;20031;-59
2023/10/28 04:11:41;;;;;;;25.33;11.75;;;;;;;0.85;71.76;98054.34;5114654;28;20048;-61
2023/10/28 04:14:07;;;;;;;23.25;12.50;;;;;;;0.80;71.46;98033.59;5114837;27;20438;-61
2023/10/28 04:16:32;;;;;;;20.52;11.43;;;;;;;0.90;71.68;98048.78;5110717;28;20027;-60
2023/10/28 04:18:58;;;;;;;26.35;12.93;;;;;;;0.74;71.83;98043.72;5114303;28;20342;-61
2023/10/28 04:21:24;;;;;;;21.65;12.40;;;;;;;0.48;72.00;97996.28;5113547;28;20031;-58
2023/10/28 04:23:50;;;;;;;23.90;12.70;;;;;;;0.79;72.15;98044.25;5096644;28;20028;-60
2023/10/28 04:26:15;;;;;;;23.30;12.30;;;;;;;0.87;71.63;98034.00;5113295;28;20093;-59
2023/10/28 04:28:41;;;;;;;25.88;13.00;;;;;;;0.85;71.81;98041.19;5113891;28;20369;-59
2023/10/28 04:31:06;;;;;;;25.75;12.07;;;;;;;0.75;72.66;98040.16;5113012;28;20339;-61
2023/10/28 04:33:32;;;;;;;21.75;11.40;;;;;;;0.65;71.58;97998.63;5113466;28;20027;-62
2023/10/28 04:35:57;;;;;;;21.67;11.00;;;;;;;0.83;71.64;98036.00;5114008;27;20500;-62
2023/10/28 04:38:23;;;;;;;19.40;10.35;;;;;;;0.81;72.13;98039.72;5114343;28;20111;-60
2023/10/28 04:40:49;;;;;;;18.98;11.25;;;;;;;0.76;73.06;98041.84;5113775;28;20312;-56
2023/10/28 04:43:15;;;;;;;19.38;10.27;;;;;;;0.92;71.98;98036.34;5114253;28;20031;-59
2023/10/28 04:45:44;;;;;;;22.33;10.77;;;;;;;0.88;72.30;98034.88;5113108;28;20028;-61
2023/10/28 04:48:11;;;;;;;21.67;11.18;;;;;;;0.93;71.84;98030.94;5113852;28;20096;-60
2023/10/28 04:50:37;;;;;;;18.05;9.57;;;;;;;0.89;71.81;98032.09;5114181;28;20023;-61
2023/10/28 04:53:02;;;;;;;17.45;10.15;;;;;;;0.90;71.90;98025.88;5114353;27;20444;-59
2023/10/28 04:55:28;;;;;;;19.33;9.88;;;;;;;0.86;71.85;98027.06;5114378;28;20148;-61
2023/10/28 04:57:53;;;;;;;21.60;10.10;;;;;;;0.81;72.14;98023.91;5114053;28;20034;-59
2023/10/28 05:00:19;;;;;;;21.75;10.95;;;;;;;0.76;72.59;98016.31;5113041;28;20019;-60
2023/10/28 05:02:45;;;;;;;21.75;11.18;;;;;;;0.88;72.16;97995.34;5113818;28;20088;-58
2023/10/28 05:05:13;;;;;;;24.00;11.40;;;;;;;0.95;71.76;98005.31;5112266;28;20392;-60
2023/10/28 05:07:39;;;;;;;23.70;11.68;;;;;;;0.83;72.28;97999.13;5113075;28;20114;-58
2023/10/28 05:10:05;;;;;;;18.70;10.85;;;;;;;0.88;72.10;97992.72;5113111;28;20122;-60
2023/10/28 05:12:32;;;;;;;21.90;11.98;;;;;;;0.92;72.33;97989.72;5112263;28;20354;-59
2023/10/28 05:14:59;;;;;;;19.90;11.68;;;;;;;0.91;72.44;97995.94;5113170;28;20039;-60
2023/10/28 05:17:25;;;;;;;26.67;12.77;;;;;;;0.96;72.51;98001.75;5113792;28;20067;-61
2023/10/28 05:19:51;;;;;;;20.65;11.60;;;;;;;0.91;71.98;97982.78;5112653;28;20076;-57
2023/10/28 05:22:18;;;;;;;18.98;10.63;;;;;;;1.11;71.57;97999.84;5112879;28;20051;-57
2023/10/28 05:24:45;;;;;;;20.38;11.48;;;;;;;0.94;71.80;97987.81;5111125;28;20055;-59
2023/10/28 05:27:10;;;;;;;23.63;11.57;;;;;;;0.95;72.23;97973.69;5113318;28;20043;-57
2023/10/28 05:29:36;;;;;;;21.25;10.93;;;;;;;0.99;72.03;97985.72;5113820;27;20027;-60
2023/10/28 05:32:02;;;;;;;19.48;11.25;;;;;;;0.98;71.99;97984.06;5113403;28;20047;-56
2023/10/28 05:34:27;;;;;;;22.88;11.82;;;;;;;1.02;71.72;97971.47;5112818;28;20361;-65
2023/10/28 05:36:53;;;;;;;19.98;10.70;;;;;;;1.09;71.81;97977.16;5112533;28;20076;-64
2023/10/28 05:39:20;;;;;;;19.50;11.30;;;;;;;0.99;72.34;97962.00;5113198;28;20031;-64
2023/10/28 05:41:47;;;;;;;22.45;10.85;;;;;;;1.03;71.70;97951.25;5113208;28;20031;-64
2023/10/28 05:44:14;;;;;;;21.15;11.20;;;;;;;1.16;71.77;97959.13;5113304;28;20322;-64
2023/10/28 05:46:40;;;;;;;24.15;10.50;;;;;;;1.12;71.87;97953.22;5112812;28;20165;-62
2023/10/28 05:49:06;;;;;;;22.77;10.85;;;;;;;1.07;72.41;97950.06;5111975;28;20024;-63
2023/10/28 05:51:36;;;;;;;26.70;11.65;;;;;;;1.09;72.57;97959.56;5113287;28;20354;-64
2023/10/28 05:54:03;;;;;;;21.83;10.70;;;;;;;1.21;72.34;97954.34;5113090;28;20353;-63
2023/10/28 05:56:29;;;;;;;19.88;11.20;;;;;;;1.29;72.13;97933.53;5111962;28;20300;-64
2023/10/28 05:58:57;;;;;;;19.80;10.65;;;;;;;1.31;71.98;97939.53;5113373;28;20138;-65
2023/10/28 06:01:23;;;;;;;25.30;11.25;;;;;;;1.21;72.57;97926.22;5113573;28;20031;-65
2023/10/28 06:03:49;;;;;;;17.42;9.82;;;;;;;1.34;72.64;97938.47;5113330;28;20424;-65
2023/10/28 06:06:15;;;;;;;18.15;9.70;;;;;;;1.48;71.57;97935.69;5112760;28;20088;-65
2023/10/28 06:08:41;;;;;;;20.55;11.38;;;;;;;1.36;71.75;97936.56;5113467;28;20066;-64
2023/10/28 06:11:09;;;;;;;19.25;10.60;;;;;;;1.31;71.59;97920.25;5113252;28;20024;-65
2023/10/28 06:13:35;;;;;;;19.27;9.00;;;;;;;1.39;71.68;97934.56;5112012;28;20055;-64
2023/10/28 06:16:01;;;;;;;17.60;10.35;;;;;;;1.42;71.29;97936.97;5112831;28;20024;-65
2023/10/28 06:18:26;;;;;;;17.58;9.82;;;;;;;1.22;71.87;97927.03;5113597;28;20028;-65
2023/10/28 06:20:52;;;;;;;15.80;10.05;;;;;;;1.17;72.75;97935.25;5113205;28;20031;-66
2023/10/28 06:23:18;;;;;;;19.55;9.88;;;;;;;1.32;71.78;97924.56;5112724;28;20464;-64
2023/10/28 06:25:43;;;;;;;17.80;10.00;;;;;;;1.28;71.58;97922.16;5113051;28;20048;-65
2023/10/28 06:28:10;;;;;;;17.50;9.70;;;;;;;1.25;72.00;97927.66;5113049;28;20067;-65
2023/10/28 06:30:44;;;;;;;19.63;10.07;;;;;;;1.23;72.25;97919.03;5112075;28;20031;-66
2023/10/28 06:33:12;;;;;;;14.60;9.73;;;;;;;1.33;71.55;97920.97;5111491;28;20038;-62
2023/10/28 06:35:37;;;;;;;16.58;8.75;;;;;;;1.45;71.11;97914.81;5112384;28;20476;-62
2023/10/28 06:38:03;;;;;;;15.98;9.35;;;;;;;1.36;71.63;97915.47;5112667;28;20158;-63
2023/10/28 06:40:29;;;;;;;14.13;8.75;;;;;;;1.46;71.35;97924.41;5113251;28;20100;-62
2023/10/28 06:42:56;;;;;;;18.40;9.45;;;;;;;1.38;71.27;97905.66;5111491;28;20063;-63
2023/10/28 06:45:22;;;;;;;29.67;8.82;;;;;;;1.38;71.53;97916.19;5114047;28;20091;-61
2023/10/28 06:47:48;;;;;;;15.20;9.70;;;;;;;1.28;72.53;97921.31;5116496;28;20028;-62
2023/10/28 06:50:19;;;;;;;16.05;8.57;;;;;;;1.48;71.41;97901.41;5116745;28;20457;-59
2023/10/28 06:52:50;;;;;;;13.50;9.13;;;;;;;1.52;71.45;97899.34;5116421;28;20130;-62
2023/10/28 06:55:17;;;;;;;17.75;9.73;;;;;;;1.61;70.78;97911.03;5116197;28;20031;-63
2023/10/28 06:57:44;;;;;;;15.93;9.55;;;;;;;1.54;70.37;97892.16;5116436;28;20076;-62
2023/10/28 07:00:14;;;;;;;17.25;9.27;;;;;;;1.53;70.60;97896.63;5116375;28;20091;-62
2023/10/28 07:02:41;;;;;;;15.80;10.35;;;;;;;1.17;71.38;97847.44;5116210;28;20027;-62
2023/10/28 07:05:08;;;;;;;19.20;10.73;;;;;;;1.46;71.66;97898.03;5115881;28;20358;-63
2023/10/28 07:07:37;;;;;;;18.55;10.35;;;;;;;1.60;71.06;97883.81;5115937;28;20350;-62
2023/10/28 07:10:04;;;;;;;19.52;10.40;;;;;;;1.70;70.76;97884.78;5115878;28;20092;-60
2023/10/28 07:12:30;;;;;;;19.00;11.70;;;;;;;1.66;70.54;97893.91;5116394;28;20027;-62
2023/10/28 07:14:56;;;;;;;15.52;10.98;;;;;;;1.65;71.25;97891.38;5115777;28;20035;-60
2023/10/28 07:17:22;;;;;;;18.00;10.75;;;;;;;1.67;71.28;97897.38;5115911;28;20452;-62
2023/10/28 07:19:48;;;;;;;17.58;11.25;;;;;;;1.63;71.15;97886.22;5115422;28;20035;-62
2023/10/28 07:22:20;;;;;;;16.42;10.57;;;;;;;1.68;70.91;97886.72;5115589;27;20037;-63
2023/10/28 07:24:46;;;;;;;23.58;12.60;;;;;;;1.68;71.26;97872.66;5115564;28;20059;-62
2023/10/28 07:27:12;;;;;;;13.18;8.73;;;;;;;1.80;70.97;97873.53;5115399;28;20054;-62
2023/10/28 07:29:38;;;;;;;17.90;10.82;;;;;;;1.80;70.54;97861.19;5114602;28;20035;-62
2023/10/28 07:32:05;;;;;;;19.63;11.15;;;;;;;1.78;71.63;97865.75;5115806;28;20118;-59
2023/10/28 07:34:31;;;;;;;15.52;10.32;;;;;;;1.92;70.81;97863.84;5116031;28;20035;-62
2023/10/28 07:37:00;;;;;;;19.70;11.40;;;;;;;2.00;70.04;97872.03;5115232;28;20077;-61
2023/10/28 07:39:26;;;;;;;18.88;11.52;;;;;;;1.93;70.81;97857.59;5115880;28;20028;-63
2023/10/28 07:41:53;;;;;;;17.27;10.80;;;;;;;2.03;70.44;97870.94;5115477;28;20330;-55
2023/10/28 07:44:18;;;;;;;21.10;11.07;;;;;;;1.89;69.62;97822.72;5115445;28;20039;-60
2023/10/28 07:46:44;;;;;;;14.85;10.50;;;;;;;2.01;70.79;97847.31;5115447;28;20031;-58
2023/10/28 07:49:10;;;;;;;14.35;7.68;;;;;;;2.45;68.76;97858.00;5115657;28;20020;-58
2023/10/28 07:51:36;;;;;;;17.10;9.55;;;;;;;2.21;69.77;97852.84;5115309;28;20109;-58
2023/10/28 07:54:03;;;;;;;19.08;11.10;;;;;;;2.05;70.38;97861.94;5115711;28;20087;-57
2023/10/28 07:56:29;;;;;;;15.80;10.27;;;;;;;2.05;69.97;97846.13;5115236;28;20042;-55
2023/10/28 07:58:59;;;;;;;18.60;10.10;;;;;;;2.14;69.93;97858.59;5115025;28;20569;-54
2023/10/28 08:01:25;;;;;;;15.18;10.38;;;;;;;2.40;68.83;97855.69;5115133;28;20031;-60
2023/10/28 08:03:51;;;;;;;16.30;10.38;;;;;;;2.35;69.31;97863.16;5115367;28;20035;-58
2023/10/28 08:06:19;;;;;;;15.10;10.63;;;;;;;2.23;69.59;97862.31;5115275;28;20031;-59
2023/10/28 08:08:46;;;;;;;20.25;10.45;;;;;;;2.19;69.71;97862.69;5115045;28;20043;-60
2023/10/28 08:11:13;;;;;;;18.40;11.30;;;;;;;2.13;70.13;97875.38;5113928;28;20020;-56
2023/10/28 08:13:40;;;;;;;18.73;11.07;;;;;;;2.11;70.03;97861.47;5114095;28;20438;-58
2023/10/28 08:16:09;;;;;;;17.15;10.18;;;;;;;2.11;69.89;97872.03;5114393;28;20031;-57
2023/10/28 08:18:36;;;;;;;15.93;9.60;;;;;;;2.12;70.53;97857.88;5114673;28;20114;-57
2023/10/28 08:21:01;;;;;;;17.35;9.88;;;;;;;2.24;69.70;97856.06;5114188;28;20020;-58
2023/10/28 08:23:29;;;;;;;11.85;8.35;;;;;;;2.27;69.67;97862.91;5114250;28;20036;-58
2023/10/28 08:25:57;;;;;;;14.43;9.07;;;;;;;2.29;69.77;97858.34;5114230;28;20046;-57
2023/10/28 08:28:22;;;;;;;11.65;7.40;;;;;;;2.43;69.09;97847.56;5113944;28;20027;-57
2023/10/28 08:30:48;;;;;;;13.43;9.20;;;;;;;2.26;69.23;97834.84;5114144;28;20110;-60
2023/10/28 08:33:14;;;;;;;15.40;9.52;;;;;;;2.26;70.03;97843.59;5094373;28;20526;-63
2023/10/28 08:35:39;;;;;;;8.15;5.53;;;;;;;2.48;69.60;97841.06;5109454;28;20040;-60
2023/10/28 08:38:05;;;;;;;16.63;8.85;;;;;;;1.72;69.07;97732.50;5092953;28;20040;-59
2023/10/28 08:40:34;;;;;;;15.23;9.07;;;;;;;2.42;69.33;97837.09;5106028;28;20019;-58
2023/10/28 08:43:00;;;;;;;10.07;6.13;;;;;;;2.72;67.93;97833.81;5113420;28;20035;-64
2023/10/28 08:45:27;;;;;;;13.50;7.97;;;;;;;2.41;68.38;97814.28;5113318;28;20047;-61
2023/10/28 08:47:53;;;;;;;11.38;7.60;;;;;;;2.38;69.10;97823.28;5114142;28;20100;-61
2023/10/28 08:50:24;;;;;;;13.07;7.95;;;;;;;2.34;69.53;97829.78;5114171;28;20038;-62
2023/10/28 08:52:56;;;;;;;10.85;7.63;;;;;;;2.51;68.93;97825.81;5114127;28;20067;-59
2023/10/28 08:55:24;;;;;;;10.27;7.25;;;;;;;2.49;68.06;97816.34;5114332;28;20304;-62
2023/10/28 08:57:51;;;;;;;12.65;7.03;;;;;;;2.27;69.52;97791.63;5113822;28;20380;-61
2023/10/28 09:00:20;;;;;;;11.70;6.80;;;;;;;2.55;68.80;97802.63;5113877;27;20035;-62
2023/10/28 09:02:49;;;;;;;12.57;6.80;;;;;;;2.49;68.58;97782.81;5113716;28;20354;-67
2023/10/28 09:05:15;;;;;;;11.70;7.00;;;;;;;2.31;68.13;97742.88;5113692;28;20434;-60
2023/10/28 09:07:43;;;;;;;13.13;7.22;;;;;;;2.27;69.68;97796.91;5113289;28;20020;-60
2023/10/28 09:10:13;;;;;;;13.98;7.13;;;;;;;2.28;69.45;97780.09;5113890;28;20326;-59
2023/10/28 09:12:43;;;;;;;10.95;6.22;;;;;;;2.18;69.95;97760.69;5113073;28;20130;-59
2023/10/28 09:15:11;;;;;;;14.45;7.10;;;;;;;2.37;69.13;97779.34;5113621;28;20360;-59
2023/10/28 09:17:39;;;;;;;9.82;6.18;;;;;;;2.36;69.39;97785.59;5113537;28;20135;-60
2023/10/28 09:20:12;;;;;;;9.40;5.63;;;;;;;2.60;68.31;97787.25;5113078;28;20032;-59
2023/10/28 09:22:42;;;;;;;9.65;6.57;;;;;;;2.41;69.19;97766.75;5112456;28;20035;-59
2023/10/28 09:25:09;;;;;;;10.63;6.57;;;;;;;2.22;69.05;97725.16;5112405;28;20035;-59
2023/10/28 09:27:36;;;;;;;11.95;6.65;;;;;;;2.18;69.47;97713.16;5109564;28;20031;-55
2023/10/28 09:30:06;;;;;;;8.98;6.05;;;;;;;2.58;68.70;97762.75;5096465;28;20086;-59
2023/10/28 09:32:35;;;;;;;11.40;6.60;;;;;;;2.51;69.22;97746.56;5110908;28;20096;-59
2023/10/28 09:35:08;;;;;;;8.30;5.47;;;;;;;2.72;69.22;97762.47;5111213;28;20620;-59
2023/10/28 09:37:38;;;;;;;8.35;5.68;;;;;;;2.66;68.70;97743.63;5110431;28;20040;-58
2023/10/28 09:40:07;;;;;;;12.35;6.43;;;;;;;2.61;68.63;97751.09;5110586;28;20024;-60
2023/10/28 09:42:37;;;;;;;10.68;6.78;;;;;;;2.55;69.05;97741.88;5110326;28;20028;-58
2023/10/28 09:45:11;;;;;;;8.90;4.70;;;;;;;2.66;68.00;97754.22;5112678;28;20031;-59
2023/10/28 09:47:56;;;;;;;10.68;5.68;;;;;;;2.55;69.37;97731.31;5113273;28;20084;-61
2023/10/28 09:50:25;;;;;;;9.05;6.18;;;;;;;2.26;69.12;97694.91;5112412;28;20115;-60
2023/10/28 09:52:58;;;;;;;7.13;4.40;;;;;;;2.76;68.67;97728.69;5112944;28;20039;-62
2023/10/28 09:55:27;;;;;;;9.60;6.13;;;;;;;2.54;69.39;97724.34;5111960;28;20137;-60
2023/10/28 09:58:07;;;;;;;12.00;5.93;;;;;;;2.44;69.74;97721.59;5112307;28;20035;-60
2023/10/28 10:00:34;;;;;;;7.90;4.13;;;;;;;2.53;69.30;97717.38;5112491;28;20130;-61
2023/10/28 10:03:21;;;;;;;8.45;5.97;;;;;;;2.45;69.50;97728.56;5111620;28;20031;-61
2023/10/28 10:05:47;;;;;;;11.68;4.75;;;;;;;2.34;70.23;97716.22;5110024;28;20027;-59
2023/10/28 10:08:17;;;;;;;7.82;5.85;;;;;;;2.03;71.38;97688.81;5111261;28;20408;-61
2023/10/28 10:10:47;;;;;;;10.63;6.53;;;;;;;2.15;71.48;97717.69;5111326;28;20028;-59
2023/10/28 10:13:16;;;;;;;8.43;5.85;;;;;;;2.11;71.24;97707.53;5111822;28;20035;-58
2023/10/28 10:15:53;;;;;;;8.40;5.40;;;;;;;2.24;71.15;97712.66;5111850;28;20059;-61
2023/10/28 10:18:47;;;;;;;9.75;5.47;;;;;;;2.12;71.26;97709.22;5101072;28;20027;-60
2023/10/28 10:21:18;;;;;;;6.68;5.45;;;;;;;2.09;71.59;97699.72;5113018;28;20035;-59
2023/10/28 10:23:49;;;;;;;12.55;6.57;;;;;;;2.07;71.25;97696.38;5114730;28;20042;-58
2023/10/28 10:26:23;;;;;;;10.55;5.78;;;;;;;2.09;71.94;97705.00;5115812;28;20130;-59
2023/10/28 10:28:51;;;;;;;10.90;4.88;;;;;;;2.15;71.21;97695.75;5116392;28;20115;-61
2023/10/28 10:31:23;;;;;;;4.90;3.50;;;;;;;2.23;70.87;97684.59;5117004;28;20078;-57
2023/10/28 10:34:05;;;;;;;11.43;5.47;;;;;;;2.16;71.47;97705.34;5115847;28;20051;-61
2023/10/28 10:36:38;;;;;;;8.18;5.03;;;;;;;2.14;71.06;97699.34;5096384;28;20043;-61
2023/10/28 10:39:19;;;;;;;8.40;5.50;;;;;;;2.01;72.29;97686.31;5112996;28;20035;-60
2023/10/28 10:41:55;;;;;;;7.03;5.20;;;;;;;2.09;72.44;97685.69;5115966;28;20036;-59
2023/10/28 10:44:37;;;;;;;10.15;4.63;;;;;;;2.11;71.60;97674.03;5112761;28;20137;-61
2023/10/28 10:47:04;;;;;;;7.18;4.65;;;;;;;1.98;71.97;97646.97;5116111;28;20034;-61
2023/10/28 10:49:31;;;;;;;6.70;4.57;;;;;;;2.29;71.57;97692.00;5116143;28;20088;-59
2023/10/28 10:52:01;;;;;;;5.80;3.22;;;;;;;2.37;70.52;97668.44;5115999;28;20468;-60
2023/10/28 10:54:34;;;;;;;8.10;4.47;;;;;;;1.75;71.86;97623.25;5115673;28;20027;-61
2023/10/28 10:57:01;;;;;;;6.78;4.28;;;;;;;2.14;72.16;97675.59;5116288;28;20080;-58
2023/10/28 10:59:31;;;;;;;9.55;5.03;;;;;;;2.14;71.70;97667.69;5116121;28;20035;-61
2023/10/28 11:01:57;;;;;;;8.23;4.28;;;;;;;2.30;70.83;97659.34;5115624;28;20031;-60
2023/10/28 11:04:26;;;;;;;6.55;4.13;;;;;;;2.35;70.36;97661.63;5115420;28;20137;-61
2023/10/28 11:06:52;;;;;;;10.98;4.70;;;;;;;2.11;71.08;97645.00;5115091;28;20385;-57
2023/10/28 11:09:18;;;;;;;8.85;5.35;;;;;;;1.94;72.06;97645.53;5115589;28;20032;-59
2023/10/28 11:11:43;;;;;;;9.93;5.95;;;;;;;1.97;72.31;97634.72;5115786;28;20059;-58
2023/10/28 11:14:09;;;;;;;12.52;6.45;;;;;;;2.06;72.35;97631.34;5115798;28;20028;-60
2023/10/28 11:16:36;;;;;;;12.35;6.97;;;;;;;2.02;72.53;97632.56;5116087;28;20039;-57
2023/10/28 11:19:04;;;;;;;11.40;6.35;;;;;;;2.17;71.42;97617.28;5115409;28;20028;-59
2023/10/28 11:21:31;;;;;;;9.68;6.40;;;;;;;2.13;72.26;97627.22;5115642;28;20411;-62
2023/10/28 11:23:58;;;;;;;10.20;6.15;;;;;;;2.18;71.31;97616.31;5115298;28;20347;-62
2023/10/28 11:26:24;;;;;;;11.35;7.25;;;;;;;1.92;71.46;97577.03;5114756;28;20043;-58
2023/10/28 11:28:50;;;;;;;10.38;6.28;;;;;;;1.72;72.46;97576.84;5115376;28;20059;-60